createdAt,value
2022-10-19T00:01:14.886Z,5.81
2022-10-19T00:03:42.916Z,5.72
2022-10-19T00:06:26.131Z,5.65
2022-10-19T00:09:02.254Z,5.72
2022-10-19T00:11:29.928Z,5.78
2022-10-19T00:13:58.065Z,5.81
2022-10-19T00:16:27.683Z,6.06
2022-10-19T00:18:57.927Z,6.23
2022-10-19T00:21:25.231Z,6.35
2022-10-19T00:23:52.458Z,6.34
2022-10-19T00:26:19.563Z,6.49
2022-10-19T00:28:46.565Z,6.52
2022-10-19T00:31:16.197Z,6.68
2022-10-19T00:33:46.795Z,6.71
2022-10-19T00:36:22.571Z,6.80
2022-10-19T00:38:49.670Z,6.92
2022-10-19T00:41:18.595Z,7.11
2022-10-19T00:44:28.071Z,7.28
2022-10-19T00:47:00.307Z,7.44
2022-10-19T00:49:32.155Z,7.61
2022-10-19T00:52:08.273Z,7.82
2022-10-19T00:54:38.661Z,7.92
2022-10-19T00:57:07.342Z,7.98
2022-10-19T00:59:35.339Z,8.11
2022-10-19T01:02:04.762Z,7.57
2022-10-19T01:04:33.907Z,7.01
2022-10-19T01:07:02.430Z,6.80
2022-10-19T01:09:29.447Z,6.78
2022-10-19T01:12:24.483Z,6.79
2022-10-19T01:15:16.467Z,6.71
2022-10-19T01:17:43.259Z,6.52
2022-10-19T01:20:25.232Z,6.57
2022-10-19T01:22:54.926Z,6.54
2022-10-19T01:25:40.966Z,6.53
2022-10-19T01:28:22.982Z,6.50
2022-10-19T01:30:53.057Z,6.49
2022-10-19T01:33:47.445Z,6.48
2022-10-19T01:36:23.385Z,6.11
2022-10-19T01:39:21.224Z,5.84
2022-10-19T01:42:03.284Z,5.73
2022-10-19T01:45:02.888Z,5.58
2022-10-19T01:47:41.187Z,5.52
2022-10-19T01:50:16.161Z,5.61
2022-10-19T01:52:44.129Z,5.46
2022-10-19T01:55:16.298Z,5.55
2022-10-19T01:57:49.004Z,5.71
2022-10-19T02:00:17.747Z,5.87
2022-10-19T02:02:50.764Z,6.00
2022-10-19T02:05:20.445Z,6.42
2022-10-19T02:07:51.597Z,6.72
2022-10-19T02:10:19.829Z,7.37
2022-10-19T02:12:48.382Z,7.62
2022-10-19T02:15:19.551Z,7.80
2022-10-19T02:17:49.916Z,7.96
2022-10-19T02:20:17.522Z,7.98
2022-10-19T02:22:44.836Z,8.12
2022-10-19T02:25:13.035Z,8.30
2022-10-19T02:27:44.120Z,8.40
2022-10-19T02:30:17.046Z,8.50
2022-10-19T02:32:44.667Z,8.61
2022-10-19T02:35:14.686Z,8.55
2022-10-19T02:37:42.318Z,8.64
2022-10-19T02:40:10.599Z,8.32
2022-10-19T02:42:54.859Z,8.26
2022-10-19T02:45:29.385Z,8.10
2022-10-19T02:48:02.472Z,7.99
2022-10-19T02:50:29.636Z,7.94
2022-10-19T02:52:59.031Z,7.76
2022-10-19T02:55:26.350Z,7.21
2022-10-19T02:57:53.964Z,6.94
2022-10-19T03:00:21.054Z,6.93
2022-10-19T03:02:48.407Z,7.06
2022-10-19T03:05:15.356Z,7.23
2022-10-19T03:07:43.036Z,6.87
2022-10-19T03:10:10.301Z,6.87
2022-10-19T03:12:37.240Z,6.49
2022-10-19T03:15:04.636Z,6.56
2022-10-19T03:17:31.768Z,6.40
2022-10-19T03:19:58.880Z,6.37
2022-10-19T03:22:25.865Z,6.89
2022-10-19T03:24:52.779Z,6.71
2022-10-19T03:27:19.741Z,6.68
2022-10-19T03:29:46.758Z,6.80
2022-10-19T03:32:13.690Z,6.73
2022-10-19T03:34:40.616Z,6.79
2022-10-19T03:37:08.757Z,7.00
2022-10-19T03:39:35.841Z,7.23
2022-10-19T03:42:02.711Z,7.25
2022-10-19T03:44:29.602Z,7.27
2022-10-19T03:46:56.530Z,7.52
2022-10-19T03:49:23.455Z,7.67
2022-10-19T03:51:50.300Z,7.94
2022-10-19T03:54:17.907Z,7.81
2022-10-19T03:56:44.944Z,7.73
2022-10-19T03:59:14.694Z,7.66
2022-10-19T04:01:44.933Z,7.67
2022-10-19T04:04:17.344Z,7.53
2022-10-19T04:06:47.714Z,7.51
2022-10-19T04:09:17.619Z,7.55
2022-10-19T04:11:45.034Z,7.59
2022-10-19T04:14:26.828Z,7.73
2022-10-19T04:17:01.798Z,7.81
2022-10-19T04:19:28.848Z,8.00
2022-10-19T04:21:55.761Z,7.89
2022-10-19T04:24:23.162Z,7.84
2022-10-19T04:26:52.940Z,7.71
2022-10-19T04:29:24.949Z,7.60
2022-10-19T04:31:54.927Z,8.13
2022-10-19T04:34:21.932Z,8.25
2022-10-19T04:36:48.794Z,8.04
2022-10-19T04:39:15.751Z,7.68
2022-10-19T04:41:42.614Z,7.54
2022-10-19T04:44:09.971Z,7.67
2022-10-19T04:46:37.521Z,7.86
2022-10-19T04:49:06.270Z,8.01
2022-10-19T04:51:33.306Z,8.09
2022-10-19T04:54:00.326Z,8.06
2022-10-19T04:56:28.181Z,8.16
2022-10-19T04:59:00.410Z,8.27
2022-10-19T05:01:29.447Z,8.45
2022-10-19T05:03:58.707Z,8.55
2022-10-19T05:06:26.237Z,8.68
2022-10-19T05:08:53.658Z,8.77
2022-10-19T05:11:21.002Z,8.87
2022-10-19T05:13:48.510Z,8.95
2022-10-19T05:16:18.182Z,9.07
2022-10-19T05:18:53.389Z,9.19
2022-10-19T05:21:21.945Z,9.31
2022-10-19T05:23:52.472Z,9.37
2022-10-19T05:26:21.607Z,9.33
2022-10-19T05:28:50.808Z,9.35
2022-10-19T05:31:19.941Z,9.34
2022-10-19T05:33:47.107Z,9.34
2022-10-19T05:36:20.061Z,9.41
2022-10-19T05:38:49.265Z,9.49
2022-10-19T05:41:17.219Z,9.62
2022-10-19T05:43:44.833Z,9.73
2022-10-19T05:46:15.062Z,9.83
2022-10-19T05:48:42.270Z,10.02
2022-10-19T05:51:12.703Z,10.34
2022-10-19T05:53:40.114Z,10.58
2022-10-19T05:56:09.351Z,10.78
2022-10-19T05:58:36.429Z,11.05
2022-10-19T06:01:03.999Z,11.25
2022-10-19T06:03:31.078Z,11.32
2022-10-19T06:05:58.200Z,11.41
2022-10-19T06:08:25.758Z,11.48
2022-10-19T06:10:52.889Z,11.83
2022-10-19T06:13:20.141Z,12.25
2022-10-19T06:15:51.467Z,12.50
2022-10-19T06:18:18.551Z,12.80
2022-10-19T06:20:45.447Z,12.97
2022-10-19T06:23:12.431Z,13.18
2022-10-19T06:25:42.028Z,13.29
2022-10-19T06:28:09.040Z,13.42
2022-10-19T06:30:41.669Z,13.53
2022-10-19T06:33:08.780Z,13.72
2022-10-19T06:35:35.909Z,13.76
2022-10-19T06:38:02.863Z,13.91
2022-10-19T06:40:30.004Z,14.10
2022-10-19T06:42:57.078Z,14.17
2022-10-19T06:45:24.015Z,14.28
2022-10-19T06:47:51.037Z,14.46
2022-10-19T06:50:18.710Z,14.54
2022-10-19T06:52:46.200Z,14.58
2022-10-19T06:55:13.358Z,14.36
2022-10-19T06:57:40.286Z,14.13
2022-10-19T07:00:08.297Z,14.21
2022-10-19T07:02:35.452Z,13.84
2022-10-19T07:05:06.134Z,13.78
2022-10-19T07:07:34.960Z,13.88
2022-10-19T07:10:02.769Z,14.00
2022-10-19T07:12:29.655Z,14.10
2022-10-19T07:14:56.694Z,13.91
2022-10-19T07:17:23.584Z,13.87
2022-10-19T07:19:50.525Z,14.12
2022-10-19T07:22:22.144Z,14.41
2022-10-19T07:24:52.666Z,14.24
2022-10-19T07:27:19.656Z,14.26
2022-10-19T07:29:46.575Z,14.26
2022-10-19T07:32:16.297Z,14.52
2022-10-19T07:34:43.288Z,14.46
2022-10-19T07:37:10.407Z,14.62
2022-10-19T07:39:37.380Z,14.95
2022-10-19T07:42:05.108Z,15.13
2022-10-19T07:44:31.969Z,14.83
2022-10-19T07:46:59.385Z,14.71
2022-10-19T07:49:26.350Z,14.81
2022-10-19T07:51:55.166Z,14.83
2022-10-19T07:54:22.703Z,14.71
2022-10-19T07:56:49.586Z,14.72
2022-10-19T07:59:17.423Z,14.69
2022-10-19T08:01:45.278Z,14.91
2022-10-19T08:06:59.228Z,15.54
2022-10-19T08:09:53.158Z,15.81
2022-10-19T08:12:15.339Z,15.79
2022-10-19T08:14:42.723Z,15.93
2022-10-19T08:17:12.103Z,15.89
2022-10-19T08:19:43.509Z,15.98
2022-10-19T08:22:11.275Z,16.16
2022-10-19T08:24:38.255Z,16.18
2022-10-19T08:27:05.451Z,15.76
2022-10-19T08:29:32.571Z,15.98
2022-10-19T08:31:59.914Z,16.00
2022-10-19T08:34:26.961Z,15.55
2022-10-19T08:36:54.018Z,15.33
2022-10-19T08:39:20.879Z,15.41
2022-10-19T08:42:01.317Z,15.62
2022-10-19T08:44:34.245Z,15.86
2022-10-19T08:47:06.047Z,15.74
2022-10-19T08:49:34.988Z,16.02
2022-10-19T08:52:12.505Z,16.32
2022-10-19T08:54:59.505Z,16.28
2022-10-19T08:57:58.283Z,16.03
2022-10-19T09:01:00.543Z,16.42
2022-10-19T09:04:02.072Z,16.64
2022-10-19T09:06:41.011Z,16.86
2022-10-19T09:09:13.129Z,16.77
2022-10-19T09:11:44.676Z,17.01
2022-10-19T09:14:19.039Z,17.10
2022-10-19T09:16:46.507Z,16.52
2022-10-19T09:19:23.067Z,16.49
2022-10-19T09:21:51.788Z,16.60
2022-10-19T09:24:47.847Z,16.54
2022-10-19T09:27:23.900Z,16.08
2022-10-19T09:29:59.003Z,16.32
2022-10-19T09:32:32.680Z,16.29
2022-10-19T09:35:22.086Z,16.17
2022-10-19T09:37:51.322Z,16.15
2022-10-19T09:40:22.120Z,16.51
2022-10-19T09:42:57.416Z,16.32
2022-10-19T10:16:04.026Z,16.50
2022-10-19T10:18:31.000Z,16.79
2022-10-19T10:21:25.163Z,17.24
2022-10-19T10:24:07.064Z,17.28
2022-10-19T10:26:46.029Z,17.33
2022-10-19T10:29:35.567Z,17.29
2022-10-19T10:32:23.216Z,17.17
2022-10-19T10:35:02.865Z,17.21
2022-10-19T10:37:44.856Z,17.34
2022-10-19T10:40:38.752Z,17.49
2022-10-19T10:43:18.272Z,17.23
2022-10-19T10:45:49.783Z,17.30
2022-10-19T10:48:30.432Z,17.43
2022-10-19T10:51:00.986Z,17.42
2022-10-19T10:53:43.747Z,17.65
2022-10-19T10:56:33.508Z,17.49
2022-10-19T10:59:12.423Z,17.88
2022-10-19T11:02:09.244Z,17.80
2022-10-19T11:04:42.982Z,17.65
2022-10-19T11:07:20.269Z,17.52
2022-10-19T11:09:53.939Z,17.75
2022-10-19T11:12:35.164Z,17.89
2022-10-19T11:15:20.851Z,18.08
2022-10-19T11:18:10.843Z,17.91
2022-10-19T11:20:45.734Z,17.85
2022-10-19T11:23:28.214Z,17.91
2022-10-19T11:26:17.830Z,18.12
2022-10-19T11:29:25.675Z,18.16
2022-10-19T11:31:55.479Z,18.30
2022-10-19T11:34:34.434Z,18.18
2022-10-19T11:37:32.487Z,18.15
2022-10-19T11:40:06.112Z,18.05
2022-10-19T11:43:11.645Z,17.90
2022-10-19T11:45:56.312Z,18.16
2022-10-19T11:49:15.698Z,18.26
2022-10-19T11:51:57.697Z,18.47
2022-10-19T11:54:35.465Z,18.29
2022-10-19T11:57:05.556Z,18.13
2022-10-19T12:00:13.931Z,18.19
2022-10-19T12:03:03.703Z,18.46
2022-10-19T12:05:55.524Z,18.45
2022-10-19T12:08:31.817Z,18.46
2022-10-19T12:11:16.931Z,18.26
2022-10-19T12:13:54.866Z,18.26
2022-10-19T12:16:30.572Z,18.16
2022-10-19T12:19:01.102Z,18.55
2022-10-19T12:21:33.885Z,18.43
2022-10-19T12:24:04.147Z,18.40
2022-10-19T12:26:35.728Z,18.43
2022-10-19T12:29:14.144Z,18.36
2022-10-19T12:31:41.424Z,18.43
2022-10-19T12:34:27.101Z,18.47
2022-10-19T12:36:56.623Z,18.26
2022-10-19T12:39:54.132Z,18.45
2022-10-19T12:42:20.955Z,18.37
2022-10-19T12:45:13.168Z,18.38
2022-10-19T12:47:40.575Z,18.69
2022-10-19T12:50:08.096Z,18.60
2022-10-19T12:52:45.265Z,18.62
2022-10-19T12:55:15.182Z,18.80
2022-10-19T12:57:48.436Z,18.53
2022-10-19T13:00:24.545Z,18.36
2022-10-19T13:03:15.700Z,18.36
2022-10-19T13:05:42.981Z,18.38
2022-10-19T13:08:12.340Z,18.50
2022-10-19T13:10:41.587Z,18.53
2022-10-19T13:13:47.560Z,18.47
2022-10-19T13:16:38.220Z,18.64
2022-10-19T13:19:14.766Z,18.44
2022-10-19T13:21:46.466Z,18.41
2022-10-19T13:24:27.501Z,18.40
2022-10-19T13:27:03.672Z,18.47
2022-10-19T13:29:39.582Z,18.62
2022-10-19T13:32:37.937Z,18.45
2022-10-19T13:35:29.629Z,18.58
2022-10-19T13:38:11.551Z,18.61
2022-10-19T13:41:02.663Z,18.58
2022-10-19T13:43:38.085Z,18.50
2022-10-19T13:46:16.197Z,18.50
2022-10-19T13:48:45.971Z,18.60
2022-10-19T13:51:24.731Z,18.45
2022-10-19T13:54:20.896Z,18.29
2022-10-19T13:57:05.999Z,18.20
2022-10-19T13:59:51.576Z,18.21
2022-10-19T14:02:37.445Z,18.24
2022-10-19T14:08:17.195Z,18.07
2022-10-19T14:11:00.806Z,18.00
2022-10-19T14:13:29.235Z,18.02
2022-10-19T14:15:58.241Z,17.95
2022-10-19T14:18:28.539Z,17.93
2022-10-19T14:20:59.908Z,17.98
2022-10-19T14:23:40.251Z,17.93
2022-10-19T14:26:20.719Z,17.88
2022-10-19T14:28:53.718Z,17.81
2022-10-19T14:31:25.173Z,17.80
2022-10-19T14:34:02.544Z,17.73
2022-10-19T14:36:36.552Z,17.62
2022-10-19T14:39:05.048Z,17.51
2022-10-19T14:44:37.481Z,17.38
2022-10-19T14:47:21.395Z,17.20
2022-10-19T14:49:48.807Z,17.12
2022-10-19T14:52:38.887Z,17.03
2022-10-19T14:55:17.853Z,16.98
2022-10-19T14:57:47.698Z,16.86
2022-10-19T15:00:19.283Z,16.74
2022-10-19T15:02:54.739Z,16.59
2022-10-19T15:05:26.683Z,16.40
2022-10-19T15:07:54.876Z,16.24
2022-10-19T15:10:31.211Z,16.09
2022-10-19T15:13:06.665Z,15.95
2022-10-19T15:15:35.450Z,15.85
2022-10-19T15:18:02.577Z,15.74
2022-10-19T15:20:29.683Z,15.55
2022-10-19T15:23:00.187Z,15.45
2022-10-19T15:25:33.698Z,15.41
2022-10-19T15:28:21.333Z,15.32
2022-10-19T15:30:59.523Z,15.15
2022-10-19T15:33:26.679Z,15.05
2022-10-19T15:36:05.920Z,14.93
2022-10-19T15:38:34.806Z,14.81
2022-10-19T15:41:05.151Z,14.73
2022-10-19T15:43:34.707Z,14.76
2022-10-19T15:46:20.315Z,14.81
2022-10-19T15:48:52.340Z,14.68
2022-10-19T15:51:25.038Z,14.68
2022-10-19T15:53:53.818Z,14.61
2022-10-19T15:56:22.214Z,14.46
2022-10-19T15:58:53.351Z,14.26
2022-10-19T16:01:23.024Z,14.18
2022-10-19T16:03:50.554Z,14.11
2022-10-19T16:06:18.504Z,14.14
2022-10-19T16:08:46.386Z,14.18
2022-10-19T16:11:14.986Z,14.10
2022-10-19T16:13:42.141Z,13.85
2022-10-19T16:16:12.356Z,13.44
2022-10-19T16:18:39.685Z,13.28
2022-10-19T16:21:07.188Z,13.12
2022-10-19T16:23:39.406Z,13.16
2022-10-19T16:26:09.080Z,13.33
2022-10-19T16:28:36.323Z,13.49
2022-10-19T16:31:03.283Z,13.66
2022-10-19T16:33:30.211Z,13.61
2022-10-19T16:35:57.167Z,13.52
2022-10-19T16:38:24.054Z,13.43
2022-10-19T16:40:50.975Z,13.24
2022-10-19T16:43:17.918Z,13.17
2022-10-19T16:45:44.832Z,13.04
2022-10-19T16:48:14.690Z,12.98
2022-10-19T16:53:10.486Z,12.90
2022-10-19T16:55:39.809Z,12.95
2022-10-19T16:58:07.090Z,12.94
2022-10-19T17:00:35.521Z,12.83
2022-10-19T17:03:02.404Z,12.39
2022-10-19T17:05:29.491Z,12.19
2022-10-19T17:07:56.374Z,12.38
2022-10-19T17:10:23.939Z,12.50
2022-10-19T17:12:51.493Z,12.45
2022-10-19T17:15:41.372Z,12.22
2022-10-19T17:18:05.559Z,12.08
2022-10-19T17:20:33.498Z,11.95
2022-10-19T17:23:00.477Z,11.74
2022-10-19T17:25:27.314Z,11.60
2022-10-19T17:27:54.197Z,11.46
2022-10-19T17:30:21.099Z,11.38
2022-10-19T17:32:49.018Z,11.44
2022-10-19T17:35:16.016Z,11.39
2022-10-19T17:37:42.949Z,11.35
2022-10-19T17:40:10.362Z,11.35
2022-10-19T17:42:37.254Z,11.18
2022-10-19T17:45:04.481Z,11.03
2022-10-19T17:47:31.396Z,11.04
2022-10-19T17:49:58.263Z,11.06
2022-10-19T17:52:25.112Z,11.20
2022-10-19T17:55:11.266Z,11.24
2022-10-19T17:57:38.969Z,11.39
2022-10-19T18:00:07.494Z,11.33
2022-10-19T18:02:40.014Z,10.90
2022-10-19T18:05:07.318Z,10.70
2022-10-19T18:07:34.620Z,10.63
2022-10-19T18:10:02.044Z,10.60
2022-10-19T18:12:29.519Z,10.83
2022-10-19T18:14:56.487Z,10.79
2022-10-19T18:17:26.924Z,11.05
2022-10-19T18:19:54.821Z,11.13
2022-10-19T18:22:22.006Z,11.38
2022-10-19T18:24:49.629Z,11.39
2022-10-19T18:27:16.632Z,11.30
2022-10-19T18:29:43.671Z,11.27
2022-10-19T18:32:11.946Z,11.25
2022-10-19T18:34:38.923Z,11.21
2022-10-19T18:37:07.358Z,11.18
2022-10-19T18:39:34.560Z,11.13
2022-10-19T18:42:01.439Z,11.22
2022-10-19T18:44:30.388Z,11.23
2022-10-19T18:46:59.574Z,11.32
2022-10-19T18:49:26.555Z,11.41
2022-10-19T18:51:55.533Z,11.34
2022-10-19T18:54:24.253Z,11.25
2022-10-19T18:56:51.197Z,11.29
2022-10-19T18:59:18.816Z,11.33
2022-10-19T19:01:46.002Z,11.28
2022-10-19T19:04:13.210Z,11.20
2022-10-19T19:06:40.360Z,11.13
2022-10-19T19:09:09.837Z,11.05
2022-10-19T19:11:38.487Z,11.01
2022-10-19T19:14:11.671Z,10.96
2022-10-19T19:16:40.008Z,10.97
2022-10-19T19:19:07.575Z,10.94
2022-10-19T19:21:36.534Z,10.99
2022-10-19T19:24:05.885Z,11.06
2022-10-19T19:26:37.206Z,11.08
2022-10-19T19:29:04.601Z,11.04
2022-10-19T19:31:31.910Z,11.02
2022-10-19T19:34:02.728Z,11.01
2022-10-19T19:36:29.956Z,11.06
2022-10-19T19:38:57.620Z,11.07
2022-10-19T19:41:24.731Z,11.04
2022-10-19T19:43:51.618Z,11.02
2022-10-19T19:46:19.482Z,10.94
2022-10-19T19:48:48.137Z,10.88
2022-10-19T19:51:20.449Z,10.84
2022-10-19T19:53:48.472Z,10.79
2022-10-19T19:56:16.096Z,10.79
2022-10-19T19:58:44.347Z,10.84
2022-10-19T20:01:13.641Z,10.82
2022-10-19T20:03:41.417Z,10.77
2022-10-19T20:06:09.492Z,10.71
2022-10-19T20:08:36.983Z,10.63
2022-10-19T20:11:09.744Z,10.57
2022-10-19T20:13:37.228Z,10.53
2022-10-19T20:16:18.672Z,10.44
2022-10-19T20:18:48.417Z,10.44
2022-10-19T20:21:16.231Z,10.47
2022-10-19T20:23:47.292Z,10.53
2022-10-19T20:26:18.671Z,10.63
2022-10-19T20:28:46.361Z,10.69
2022-10-19T20:31:13.983Z,10.67
2022-10-19T20:33:42.350Z,10.78
2022-10-19T20:36:15.697Z,10.86
2022-10-19T20:38:48.111Z,10.85
2022-10-19T20:41:15.898Z,10.90
2022-10-19T20:43:42.759Z,10.99
2022-10-19T20:46:14.105Z,10.95
2022-10-19T20:48:41.133Z,10.92
2022-10-19T20:51:11.992Z,10.89
2022-10-19T20:53:39.135Z,10.81
2022-10-19T20:56:10.735Z,10.74
2022-10-19T20:58:42.832Z,10.65
2022-10-19T21:01:15.829Z,10.58
2022-10-19T21:04:03.470Z,10.57
2022-10-19T21:06:32.913Z,10.66
2022-10-19T21:09:00.870Z,10.69
2022-10-19T21:11:31.113Z,10.71
2022-10-19T21:14:03.745Z,10.80
2022-10-19T21:16:33.696Z,10.78
2022-10-19T21:19:02.110Z,10.74
2022-10-19T21:21:34.949Z,10.54
2022-10-19T21:24:08.832Z,10.45
2022-10-19T21:26:37.103Z,10.34
2022-10-19T21:29:07.282Z,10.40
2022-10-19T21:31:34.201Z,10.38
2022-10-19T21:34:05.504Z,10.41
2022-10-19T21:36:32.520Z,10.41
2022-10-19T21:38:59.371Z,10.51
2022-10-19T21:41:26.593Z,10.58
2022-10-19T21:43:54.897Z,10.55
2022-10-19T21:46:23.076Z,10.44
2022-10-19T21:48:51.203Z,10.24
2022-10-19T21:51:36.246Z,10.08
2022-10-19T21:54:05.437Z,10.12
2022-10-19T21:56:33.339Z,10.07
2022-10-19T21:59:00.681Z,10.02
2022-10-19T22:01:29.764Z,9.94
2022-10-19T22:03:58.289Z,10.00
2022-10-19T22:06:27.927Z,9.96
2022-10-19T22:08:56.000Z,9.93
2022-10-19T22:11:23.562Z,9.88
2022-10-19T22:13:54.705Z,9.93
2022-10-19T22:16:22.184Z,9.68
2022-10-19T22:18:49.392Z,9.40
2022-10-19T22:21:23.146Z,9.51
2022-10-19T22:23:54.667Z,9.73
2022-10-19T22:26:24.736Z,9.72
2022-10-19T22:28:51.833Z,9.32
2022-10-19T22:31:18.809Z,9.68
2022-10-19T22:33:45.673Z,9.71
2022-10-19T22:36:13.589Z,9.63
2022-10-19T22:38:41.094Z,9.76
2022-10-19T22:41:08.246Z,9.83
2022-10-19T22:43:35.213Z,9.79
2022-10-19T22:46:02.054Z,9.81
2022-10-19T22:48:29.019Z,9.81
2022-10-19T22:50:56.372Z,9.79
2022-10-19T22:53:24.061Z,10.03
2022-10-19T22:55:51.510Z,10.08
2022-10-19T22:58:19.397Z,9.99
2022-10-19T23:00:46.321Z,10.03
2022-10-19T23:03:13.943Z,10.12
2022-10-19T23:05:40.830Z,10.09
2022-10-19T23:08:07.650Z,10.08
2022-10-19T23:10:34.568Z,10.11
2022-10-19T23:13:01.387Z,10.00
2022-10-19T23:15:28.265Z,9.86
2022-10-19T23:17:55.160Z,9.86
2022-10-19T23:20:21.998Z,9.83
2022-10-19T23:22:50.432Z,9.79
2022-10-19T23:25:17.305Z,9.67
2022-10-19T23:27:44.217Z,9.62
2022-10-19T23:30:11.480Z,9.54
2022-10-19T23:32:38.303Z,9.56
2022-10-19T23:35:06.586Z,9.48
2022-10-19T23:37:36.377Z,9.50
2022-10-19T23:40:03.856Z,9.63
2022-10-19T23:42:30.768Z,9.68
2022-10-19T23:44:57.631Z,9.78
2022-10-19T23:47:24.503Z,9.87
2022-10-19T23:49:51.574Z,9.91
2022-10-19T23:52:18.383Z,9.98
2022-10-19T23:54:45.241Z,9.95
2022-10-19T23:57:12.138Z,9.92
2022-10-19T23:59:39.017Z,9.93
